createdAt,value
2024-01-16T00:01:08.347Z,81.87
2024-01-16T00:03:35.162Z,81.76
2024-01-16T00:06:02.266Z,81.70
2024-01-16T00:08:29.113Z,81.62
2024-01-16T00:10:55.987Z,81.60
2024-01-16T00:13:22.938Z,81.44
2024-01-16T00:15:50.860Z,81.25
2024-01-16T00:18:17.903Z,81.18
2024-01-16T00:20:45.183Z,81.00
2024-01-16T00:23:12.357Z,81.05
2024-01-16T00:25:39.185Z,81.05
2024-01-16T00:28:06.352Z,80.99
2024-01-16T00:30:34.722Z,80.92
2024-01-16T00:33:01.668Z,81.09
2024-01-16T00:35:28.596Z,81.07
2024-01-16T00:37:55.421Z,81.06
2024-01-16T00:40:22.260Z,81.21
2024-01-16T00:42:49.007Z,81.37
2024-01-16T00:45:15.908Z,81.38
2024-01-16T00:47:42.933Z,81.42
2024-01-16T00:50:10.644Z,81.46
2024-01-16T00:52:37.521Z,81.31
2024-01-16T00:55:05.621Z,81.36
2024-01-16T00:57:32.462Z,81.25
2024-01-16T00:59:59.278Z,81.21
2024-01-16T01:02:26.148Z,81.12
2024-01-16T01:04:53.025Z,81.06
2024-01-16T01:07:20.015Z,81.24
2024-01-16T01:09:46.781Z,81.14
2024-01-16T01:12:13.629Z,81.17
2024-01-16T01:14:40.518Z,80.96
2024-01-16T01:17:07.774Z,80.49
2024-01-16T01:19:34.809Z,80.27
2024-01-16T01:22:01.728Z,79.91
2024-01-16T01:24:28.666Z,79.70
2024-01-16T01:26:55.665Z,79.95
2024-01-16T01:29:22.572Z,80.19
2024-01-16T01:31:49.423Z,80.54
2024-01-16T01:34:17.108Z,80.67
2024-01-16T01:36:44.599Z,80.34
2024-01-16T01:39:12.360Z,79.98
2024-01-16T01:41:39.803Z,79.71
2024-01-16T01:44:07.804Z,79.64
2024-01-16T01:46:35.722Z,79.57
2024-01-16T01:49:02.695Z,79.59
2024-01-16T01:51:29.662Z,79.66
2024-01-16T01:53:56.760Z,79.48
2024-01-16T01:56:24.049Z,79.35
2024-01-16T01:58:52.960Z,79.04
2024-01-16T02:01:19.666Z,79.10
2024-01-16T02:03:47.377Z,79.25
2024-01-16T02:06:14.764Z,79.26
2024-01-16T02:08:42.105Z,79.22
2024-01-16T02:11:09.391Z,79.20
2024-01-16T02:13:36.558Z,79.44
2024-01-16T02:16:04.587Z,79.70
2024-01-16T02:18:31.534Z,79.86
2024-01-16T02:21:02.880Z,80.06
2024-01-16T02:23:29.742Z,80.20
2024-01-16T02:25:56.611Z,80.18
2024-01-16T02:28:23.527Z,80.08
2024-01-16T02:30:50.519Z,80.07
2024-01-16T02:33:17.556Z,80.18
2024-01-16T02:35:44.671Z,80.34
2024-01-16T02:38:11.686Z,80.20
2024-01-16T02:40:38.546Z,80.12
2024-01-16T02:43:05.435Z,80.58
2024-01-16T02:45:32.305Z,80.58
2024-01-16T02:47:59.220Z,80.23
2024-01-16T02:50:26.270Z,80.18
2024-01-16T02:52:53.247Z,80.15
2024-01-16T02:55:20.508Z,80.63
2024-01-16T02:57:47.351Z,80.70
2024-01-16T03:00:15.053Z,80.45
2024-01-16T03:02:42.353Z,79.95
2024-01-16T03:05:09.685Z,80.02
2024-01-16T03:07:36.812Z,80.45
2024-01-16T03:10:04.173Z,81.16
2024-01-16T03:12:31.020Z,81.34
2024-01-16T03:14:57.942Z,80.99
2024-01-16T03:17:24.987Z,80.85
2024-01-16T03:19:51.867Z,81.28
2024-01-16T03:22:19.668Z,81.54
2024-01-16T03:24:47.174Z,81.44
2024-01-16T03:27:14.618Z,81.64
2024-01-16T03:29:41.654Z,82.01
2024-01-16T03:32:09.189Z,81.92
2024-01-16T03:34:36.212Z,81.92
2024-01-16T03:37:03.137Z,82.56
2024-01-16T03:39:29.883Z,83.18
2024-01-16T03:41:56.828Z,83.60
2024-01-16T03:44:23.760Z,84.07
2024-01-16T03:46:50.613Z,83.98
2024-01-16T03:49:17.535Z,83.82
2024-01-16T03:51:47.480Z,83.90
2024-01-16T03:54:14.678Z,84.33
2024-01-16T03:56:41.757Z,84.63
2024-01-16T03:59:08.872Z,84.68
2024-01-16T04:01:38.364Z,84.88
2024-01-16T04:04:08.038Z,84.95
2024-01-16T04:06:35.277Z,84.73
2024-01-16T04:09:02.441Z,84.41
2024-01-16T04:11:31.064Z,84.30
2024-01-16T04:13:58.186Z,84.10
2024-01-16T04:16:25.433Z,83.96
2024-01-16T04:18:52.297Z,83.84
2024-01-16T04:21:20.792Z,83.92
2024-01-16T04:23:48.120Z,83.58
2024-01-16T04:26:15.242Z,83.30
2024-01-16T04:28:42.972Z,83.04
2024-01-16T04:31:09.857Z,82.76
2024-01-16T04:33:36.841Z,83.15
2024-01-16T04:36:03.923Z,83.63
2024-01-16T04:38:30.857Z,84.37
2024-01-16T04:40:57.703Z,84.48
2024-01-16T04:43:24.592Z,84.78
2024-01-16T04:45:51.453Z,84.57
2024-01-16T04:48:18.498Z,83.95
2024-01-16T04:50:46.882Z,84.13
2024-01-16T04:53:14.064Z,83.39
2024-01-16T04:55:41.024Z,82.90
2024-01-16T04:58:08.797Z,82.39
2024-01-16T05:00:35.658Z,81.82
2024-01-16T05:03:06.302Z,81.41
2024-01-16T05:05:33.412Z,80.94
2024-01-16T05:08:02.437Z,80.55
2024-01-16T05:10:29.119Z,80.08
2024-01-16T05:12:55.949Z,80.14
2024-01-16T05:15:22.725Z,80.14
2024-01-16T05:17:49.677Z,80.31
2024-01-16T05:20:16.811Z,80.12
2024-01-16T05:22:43.578Z,80.25
2024-01-16T05:25:10.532Z,80.36
2024-01-16T05:27:37.353Z,80.57
2024-01-16T05:30:04.804Z,80.42
2024-01-16T05:32:31.895Z,80.23
2024-01-16T05:34:59.178Z,80.23
2024-01-16T05:37:26.019Z,80.08
2024-01-16T05:39:52.899Z,79.68
2024-01-16T05:42:19.789Z,79.57
2024-01-16T05:44:46.682Z,79.32
2024-01-16T05:47:13.620Z,79.44
2024-01-16T05:49:40.790Z,79.50
2024-01-16T05:52:08.688Z,79.26
2024-01-16T05:54:35.521Z,79.27
2024-01-16T05:57:02.236Z,79.31
2024-01-16T05:59:31.840Z,79.18
2024-01-16T06:01:58.737Z,79.03
2024-01-16T06:04:25.702Z,78.71
2024-01-16T06:06:52.634Z,78.17
2024-01-16T06:09:19.798Z,77.43
2024-01-16T06:11:46.651Z,76.46
2024-01-16T06:14:14.501Z,75.55
2024-01-16T06:16:41.457Z,74.22
2024-01-16T06:19:09.604Z,72.78
2024-01-16T06:21:36.606Z,71.34
2024-01-16T06:24:03.528Z,69.97
2024-01-16T06:26:30.452Z,68.42
2024-01-16T06:28:57.380Z,66.27
2024-01-16T06:31:26.982Z,64.24
2024-01-16T06:33:54.003Z,62.18
2024-01-16T06:36:21.278Z,58.61
2024-01-16T06:38:48.295Z,57.92
2024-01-16T06:41:15.366Z,58.03
2024-01-16T06:43:42.319Z,56.09
2024-01-16T06:46:09.135Z,54.06
2024-01-16T06:48:38.251Z,53.45
2024-01-16T06:51:05.986Z,53.61
2024-01-16T06:53:32.853Z,52.83
2024-01-16T06:55:59.879Z,53.72
2024-01-16T06:58:26.727Z,52.17
2024-01-16T07:00:53.621Z,51.01
2024-01-16T07:03:20.415Z,49.88
2024-01-16T07:05:47.426Z,49.17
2024-01-16T07:08:14.307Z,49.42
2024-01-16T07:10:41.145Z,49.57
2024-01-16T07:13:08.745Z,48.35
2024-01-16T07:15:35.490Z,48.45
2024-01-16T07:18:02.462Z,45.69
2024-01-16T07:20:29.535Z,45.70
2024-01-16T07:22:56.533Z,46.27
2024-01-16T07:25:23.577Z,45.72
2024-01-16T07:27:51.134Z,45.43
2024-01-16T07:30:18.056Z,45.46
2024-01-16T07:32:45.089Z,45.19
2024-01-16T07:35:12.202Z,45.54
2024-01-16T07:37:39.322Z,46.29
2024-01-16T07:40:10.864Z,46.89
2024-01-16T07:42:37.749Z,45.40
2024-01-16T07:45:05.777Z,45.55
2024-01-16T07:47:33.147Z,44.78
2024-01-16T07:50:01.741Z,44.77
2024-01-16T07:52:29.802Z,45.65
2024-01-16T07:54:56.669Z,45.57
2024-01-16T07:57:23.530Z,45.50
2024-01-16T07:59:50.396Z,45.78
2024-01-16T08:02:18.530Z,47.60
2024-01-16T08:04:45.557Z,50.05
2024-01-16T08:07:12.337Z,48.21
2024-01-16T08:09:39.178Z,46.79
2024-01-16T08:12:07.181Z,47.08
2024-01-16T08:14:34.151Z,48.18
2024-01-16T08:17:01.223Z,48.62
2024-01-16T08:19:28.109Z,46.66
2024-01-16T08:21:54.910Z,45.05
2024-01-16T08:24:21.801Z,42.03
2024-01-16T08:26:49.130Z,43.77
2024-01-16T08:29:15.977Z,43.07
2024-01-16T08:31:42.859Z,44.04
2024-01-16T08:34:09.765Z,45.56
2024-01-16T08:36:36.756Z,45.91
2024-01-16T08:39:04.273Z,46.11
2024-01-16T08:41:31.316Z,44.32
2024-01-16T08:43:58.163Z,41.65
2024-01-16T08:46:24.941Z,42.77
2024-01-16T08:48:51.995Z,42.11
2024-01-16T08:51:18.860Z,40.51
2024-01-16T08:53:45.677Z,40.80
2024-01-16T08:56:13.773Z,40.64
2024-01-16T08:58:41.940Z,42.83
2024-01-16T09:01:09.038Z,40.21
2024-01-16T09:03:35.913Z,40.99
2024-01-16T09:06:03.058Z,40.06
2024-01-16T09:08:30.297Z,40.83
2024-01-16T09:10:57.213Z,42.21
2024-01-16T09:13:24.679Z,41.72
2024-01-16T09:15:51.614Z,43.40
2024-01-16T09:18:18.763Z,43.74
2024-01-16T09:20:45.885Z,43.83
2024-01-16T09:23:14.107Z,44.56
2024-01-16T09:25:41.438Z,45.57
2024-01-16T09:28:08.405Z,45.09
2024-01-16T09:30:35.357Z,45.09
2024-01-16T09:33:02.763Z,45.95
2024-01-16T09:35:29.681Z,44.81
2024-01-16T09:37:56.603Z,46.41
2024-01-16T09:40:23.507Z,46.78
2024-01-16T09:42:50.671Z,47.47
2024-01-16T09:45:21.016Z,47.45
2024-01-16T09:47:51.486Z,48.19
2024-01-16T09:50:21.567Z,48.89
2024-01-16T09:52:48.841Z,47.27
2024-01-16T09:55:16.374Z,48.13
2024-01-16T09:57:43.422Z,45.35
2024-01-16T10:00:12.804Z,45.24
2024-01-16T10:02:43.457Z,43.74
2024-01-16T10:05:11.826Z,46.29
2024-01-16T10:07:39.491Z,46.82
2024-01-16T10:10:06.889Z,46.12
2024-01-16T10:12:34.203Z,42.69
2024-01-16T10:15:01.185Z,44.95
2024-01-16T10:17:41.571Z,44.49
2024-01-16T10:20:08.878Z,43.22
2024-01-16T10:22:35.902Z,45.90
2024-01-16T10:25:10.160Z,44.43
2024-01-16T10:27:37.903Z,44.19
2024-01-16T10:30:05.764Z,42.87
2024-01-16T10:32:39.165Z,43.41
2024-01-16T10:35:10.155Z,43.52
2024-01-16T10:37:46.900Z,40.52
2024-01-16T10:40:17.810Z,41.09
2024-01-16T10:42:45.583Z,38.54
2024-01-16T10:45:18.761Z,38.29
2024-01-16T10:47:47.456Z,37.78
2024-01-16T10:50:14.512Z,37.21
2024-01-16T10:52:50.351Z,35.68
2024-01-16T10:55:23.956Z,37.08
2024-01-16T10:57:51.794Z,35.49
2024-01-16T11:00:22.738Z,35.88
2024-01-16T11:03:09.060Z,36.13
2024-01-16T11:05:36.128Z,36.86
2024-01-16T11:08:03.101Z,35.66
2024-01-16T11:10:29.996Z,35.23
2024-01-16T11:12:57.304Z,35.29
2024-01-16T11:15:24.204Z,35.16
2024-01-16T11:17:51.410Z,35.88
2024-01-16T11:20:37.531Z,34.21
2024-01-16T11:23:05.160Z,35.66
2024-01-16T11:25:33.636Z,34.49
2024-01-16T11:28:21.179Z,34.20
2024-01-16T11:30:49.286Z,33.46
2024-01-16T11:33:34.532Z,33.88
2024-01-16T11:36:01.928Z,33.60
2024-01-16T11:38:29.043Z,34.27
2024-01-16T11:40:56.848Z,34.92
2024-01-16T11:43:41.393Z,36.62
2024-01-16T11:46:08.876Z,36.46
2024-01-16T11:48:36.459Z,36.54
2024-01-16T11:51:23.723Z,36.54
2024-01-16T11:53:50.731Z,36.10
2024-01-16T11:56:30.871Z,38.09
2024-01-16T11:59:29.395Z,38.46
2024-01-16T12:01:59.679Z,38.36
2024-01-16T12:04:28.956Z,39.27
2024-01-16T12:06:59.204Z,39.75
2024-01-16T12:09:29.442Z,39.84
2024-01-16T12:12:03.021Z,41.39
2024-01-16T12:14:30.534Z,41.57
2024-01-16T12:17:20.061Z,41.54
2024-01-16T12:19:47.984Z,41.54
2024-01-16T12:22:15.166Z,42.41
2024-01-16T12:24:42.160Z,42.76
2024-01-16T12:27:10.285Z,44.08
2024-01-16T12:29:37.748Z,44.54
2024-01-16T12:32:12.369Z,44.75
2024-01-16T12:34:47.200Z,42.91
2024-01-16T12:37:14.284Z,44.07
2024-01-16T12:39:42.928Z,44.95
2024-01-16T12:42:11.189Z,46.32
2024-01-16T12:44:38.105Z,44.42
2024-01-16T12:47:05.187Z,46.51
2024-01-16T12:49:32.205Z,46.22
2024-01-16T12:52:19.337Z,47.15
2024-01-16T12:54:46.569Z,48.50
2024-01-16T12:57:18.793Z,48.88
2024-01-16T12:59:45.820Z,48.30
2024-01-16T13:02:21.798Z,50.45
2024-01-16T13:04:49.027Z,49.64
2024-01-16T13:07:21.891Z,47.92
2024-01-16T13:09:48.794Z,46.43
2024-01-16T13:12:22.377Z,47.93
2024-01-16T13:14:49.245Z,48.38
2024-01-16T13:17:16.237Z,48.39
2024-01-16T13:19:43.284Z,47.97
2024-01-16T13:22:10.199Z,48.77
2024-01-16T13:24:37.383Z,50.67
2024-01-16T13:27:05.933Z,51.81
2024-01-16T13:29:36.752Z,52.38
2024-01-16T13:32:03.660Z,53.19
2024-01-16T13:34:30.631Z,53.90
2024-01-16T13:37:15.009Z,54.12
2024-01-16T13:39:43.639Z,55.54
2024-01-16T13:42:10.445Z,56.39
2024-01-16T13:44:37.523Z,57.13
2024-01-16T13:47:08.963Z,57.61
2024-01-16T13:49:39.433Z,58.34
2024-01-16T13:52:07.180Z,59.08
2024-01-16T13:54:33.998Z,59.61
2024-01-16T13:57:06.824Z,59.86
2024-01-16T13:59:36.478Z,60.30
2024-01-16T14:02:05.617Z,60.77
2024-01-16T14:04:32.471Z,60.74
2024-01-16T14:07:11.081Z,61.05
2024-01-16T14:09:43.064Z,61.38
2024-01-16T14:12:10.761Z,61.71
2024-01-16T14:14:39.803Z,61.85
2024-01-16T14:17:06.819Z,61.95
2024-01-16T14:19:36.441Z,62.20
2024-01-16T14:22:03.719Z,62.40
2024-01-16T14:24:30.647Z,62.55
2024-01-16T14:27:00.250Z,62.67
2024-01-16T14:29:28.352Z,62.60
2024-01-16T14:31:57.916Z,62.51
2024-01-16T14:34:25.991Z,61.84
2024-01-16T14:36:54.657Z,62.03
2024-01-16T14:39:26.820Z,62.09
2024-01-16T14:41:54.774Z,62.14
2024-01-16T14:44:22.109Z,62.28
2024-01-16T14:46:51.871Z,62.27
2024-01-16T14:49:20.391Z,62.17
2024-01-16T14:51:47.934Z,62.30
2024-01-16T14:54:15.032Z,62.13
2024-01-16T14:56:42.188Z,62.62
2024-01-16T14:59:13.196Z,63.40
2024-01-16T15:01:42.260Z,63.48
2024-01-16T15:04:09.426Z,63.79
2024-01-16T15:06:36.633Z,63.75
2024-01-16T15:09:03.684Z,63.81
2024-01-16T15:11:30.581Z,64.34
2024-01-16T15:14:00.214Z,64.68
2024-01-16T15:16:27.379Z,64.92
2024-01-16T15:18:54.361Z,64.95
2024-01-16T15:21:21.264Z,64.99
2024-01-16T15:23:48.197Z,65.52
2024-01-16T15:26:20.606Z,65.49
2024-01-16T15:28:50.190Z,65.73
2024-01-16T15:31:17.922Z,65.48
2024-01-16T15:33:45.524Z,65.65
2024-01-16T15:36:12.471Z,66.11
2024-01-16T15:38:39.461Z,66.16
2024-01-16T15:41:06.539Z,66.26
2024-01-16T15:43:33.424Z,66.48
2024-01-16T15:46:00.941Z,66.61
2024-01-16T15:48:34.398Z,66.59
2024-01-16T15:51:01.749Z,66.71
2024-01-16T15:53:28.919Z,66.77
2024-01-16T15:55:55.815Z,66.61
2024-01-16T15:58:22.678Z,67.07
2024-01-16T16:00:49.618Z,67.38
2024-01-16T16:03:16.767Z,67.34
2024-01-16T16:05:43.709Z,67.17
2024-01-16T16:08:11.674Z,67.31
2024-01-16T16:10:38.586Z,67.48
2024-01-16T16:13:05.600Z,67.24
2024-01-16T16:15:33.040Z,67.16
2024-01-16T16:18:00.154Z,67.33
2024-01-16T16:20:27.482Z,67.48
2024-01-16T16:22:54.798Z,67.72
2024-01-16T16:25:21.745Z,68.05
2024-01-16T16:27:49.026Z,68.13
2024-01-16T16:30:16.216Z,67.74
2024-01-16T16:32:43.475Z,67.97
2024-01-16T16:35:11.349Z,67.58
2024-01-16T16:37:38.165Z,66.95
2024-01-16T16:40:06.309Z,67.44
2024-01-16T16:42:33.524Z,67.34
2024-01-16T16:45:00.673Z,67.96
2024-01-16T16:47:27.850Z,68.19
2024-01-16T16:49:54.724Z,67.94
2024-01-16T16:52:21.766Z,67.78
2024-01-16T16:54:49.715Z,67.45
2024-01-16T16:57:16.725Z,67.41
2024-01-16T16:59:43.711Z,67.41
2024-01-16T17:02:11.281Z,67.19
2024-01-16T17:04:38.363Z,66.96
2024-01-16T17:07:05.476Z,66.73
2024-01-16T17:09:32.932Z,66.86
2024-01-16T17:11:59.958Z,66.68
2024-01-16T17:14:26.917Z,66.78
2024-01-16T17:16:53.844Z,66.16
2024-01-16T17:19:20.806Z,65.96
2024-01-16T17:21:47.746Z,65.66
2024-01-16T17:24:15.328Z,65.39
2024-01-16T17:26:43.088Z,65.71
2024-01-16T17:29:10.055Z,65.26
2024-01-16T17:31:38.119Z,65.75
2024-01-16T17:34:06.779Z,65.99
2024-01-16T17:36:33.866Z,66.53
2024-01-16T17:39:01.835Z,66.57
2024-01-16T17:41:31.139Z,67.08
2024-01-16T17:43:58.487Z,67.48
2024-01-16T17:46:25.488Z,67.77
2024-01-16T17:48:52.682Z,67.90
2024-01-16T17:51:19.700Z,68.26
2024-01-16T17:53:49.259Z,67.52
2024-01-16T17:56:16.898Z,67.40
2024-01-16T17:58:44.766Z,66.82
2024-01-16T18:01:13.059Z,66.53
2024-01-16T18:03:44.908Z,66.39
2024-01-16T18:06:18.655Z,66.64
2024-01-16T18:08:46.128Z,65.25
2024-01-16T18:11:14.236Z,65.85
2024-01-16T18:13:43.642Z,66.27
2024-01-16T18:16:12.629Z,66.00
2024-01-16T18:18:40.191Z,66.45
2024-01-16T18:21:07.644Z,66.45
2024-01-16T18:23:36.320Z,66.37
2024-01-16T18:26:05.792Z,66.52
2024-01-16T18:28:32.893Z,67.01
2024-01-16T18:31:00.077Z,67.75
2024-01-16T18:33:27.232Z,68.12
2024-01-16T18:35:59.206Z,68.13
2024-01-16T18:38:28.816Z,67.66
2024-01-16T18:40:57.510Z,67.48
2024-01-16T18:43:24.770Z,66.91
2024-01-16T18:45:53.477Z,66.56
2024-01-16T18:48:20.720Z,67.57
2024-01-16T18:50:51.952Z,69.42
2024-01-16T18:53:21.176Z,69.87
2024-01-16T18:55:49.161Z,70.02
2024-01-16T18:58:16.056Z,70.56
2024-01-16T19:00:43.580Z,71.04
2024-01-16T19:03:11.579Z,71.31
2024-01-16T19:05:38.770Z,71.56
2024-01-16T19:08:05.785Z,71.96
2024-01-16T19:10:32.538Z,72.06
2024-01-16T19:12:59.381Z,72.05
2024-01-16T19:15:26.332Z,72.18
2024-01-16T19:17:54.495Z,72.60
2024-01-16T19:20:24.776Z,72.84
2024-01-16T19:22:53.682Z,73.39
2024-01-16T19:25:22.746Z,73.35
2024-01-16T19:27:50.498Z,72.77
2024-01-16T19:30:21.091Z,73.07
2024-01-16T19:32:49.613Z,73.42
2024-01-16T19:35:17.645Z,73.61
2024-01-16T19:37:45.701Z,74.06
2024-01-16T19:40:14.310Z,74.27
2024-01-16T19:42:41.845Z,74.43
2024-01-16T19:45:10.676Z,74.56
2024-01-16T19:47:43.413Z,74.95
2024-01-16T19:50:21.800Z,75.17
2024-01-16T19:52:51.868Z,74.94
2024-01-16T19:55:22.911Z,75.45
2024-01-16T19:57:50.417Z,75.62
2024-01-16T20:00:18.084Z,75.63
2024-01-16T20:02:45.312Z,75.38
2024-01-16T20:05:17.003Z,75.29
2024-01-16T20:07:44.686Z,74.93
2024-01-16T20:10:15.230Z,75.02
2024-01-16T20:12:46.338Z,75.34
2024-01-16T20:15:14.525Z,75.62
2024-01-16T20:17:45.329Z,76.10
2024-01-16T20:20:14.556Z,76.37
2024-01-16T20:22:41.912Z,76.61
2024-01-16T20:25:14.094Z,76.91
2024-01-16T20:27:41.874Z,77.21
2024-01-16T20:30:09.994Z,77.25
2024-01-16T20:32:40.493Z,77.29
2024-01-16T20:35:09.006Z,76.72
2024-01-16T20:37:35.941Z,76.82
2024-01-16T20:40:03.683Z,76.94
2024-01-16T20:42:31.641Z,76.49
2024-01-16T20:44:58.669Z,76.69
2024-01-16T20:47:25.667Z,76.66
2024-01-16T20:49:52.660Z,76.45
2024-01-16T20:52:20.261Z,76.22
2024-01-16T20:54:47.098Z,75.67
2024-01-16T20:57:14.654Z,75.74
2024-01-16T20:59:41.713Z,75.54
2024-01-16T21:02:08.643Z,75.16
2024-01-16T21:04:35.748Z,75.22
2024-01-16T21:07:05.200Z,75.36
2024-01-16T21:09:32.561Z,75.18
2024-01-16T21:12:02.097Z,75.21
2024-01-16T21:14:30.716Z,75.26
2024-01-16T21:16:58.362Z,74.79
2024-01-16T21:19:25.237Z,74.81
2024-01-16T21:21:52.407Z,74.57
2024-01-16T21:24:19.878Z,74.46
2024-01-16T21:26:49.844Z,74.65
2024-01-16T21:29:16.810Z,74.92
2024-01-16T21:31:47.836Z,74.34
2024-01-16T21:34:16.885Z,74.15
2024-01-16T21:36:48.228Z,74.58
2024-01-16T21:39:16.310Z,74.43
2024-01-16T21:41:44.399Z,75.34
2024-01-16T21:44:12.103Z,75.44
2024-01-16T21:46:40.303Z,75.31
2024-01-16T21:49:07.211Z,75.82
2024-01-16T21:51:34.084Z,76.35
2024-01-16T21:54:02.664Z,76.44
2024-01-16T21:56:29.617Z,75.50
2024-01-16T21:58:57.815Z,74.97
2024-01-16T22:01:24.639Z,75.32
2024-01-16T22:03:51.402Z,75.50
2024-01-16T22:06:18.414Z,75.34
2024-01-16T22:08:52.261Z,75.06
2024-01-16T22:11:19.329Z,74.86
2024-01-16T22:13:46.473Z,75.18
2024-01-16T22:16:13.318Z,75.21
2024-01-16T22:18:41.384Z,75.73
2024-01-16T22:21:08.641Z,75.47
2024-01-16T22:23:35.613Z,75.84
2024-01-16T22:26:02.830Z,76.19
2024-01-16T22:28:29.863Z,76.53
2024-01-16T22:30:57.566Z,77.01
2024-01-16T22:33:24.714Z,77.18
2024-01-16T22:35:51.719Z,77.09
2024-01-16T22:38:19.619Z,76.98
2024-01-16T22:40:46.717Z,76.46
2024-01-16T22:43:13.578Z,76.39
2024-01-16T22:45:41.031Z,76.41
2024-01-16T22:48:12.680Z,76.23
2024-01-16T22:50:43.414Z,76.16
2024-01-16T22:53:10.473Z,76.46
2024-01-16T22:55:37.243Z,77.34
2024-01-16T22:58:04.459Z,77.38
2024-01-16T23:00:31.742Z,77.32
2024-01-16T23:02:59.071Z,77.11
2024-01-16T23:05:28.506Z,77.07
2024-01-16T23:07:56.660Z,76.99
2024-01-16T23:10:23.574Z,76.90
2024-01-16T23:12:50.363Z,76.98
2024-01-16T23:15:17.141Z,76.82
2024-01-16T23:17:44.166Z,76.25
2024-01-16T23:20:14.541Z,76.10
2024-01-16T23:22:44.562Z,76.03
2024-01-16T23:25:11.754Z,76.04
2024-01-16T23:27:39.316Z,76.30
2024-01-16T23:30:07.106Z,76.75
2024-01-16T23:32:34.253Z,76.99
2024-01-16T23:35:01.649Z,77.14
2024-01-16T23:37:31.319Z,77.26
2024-01-16T23:39:58.701Z,77.70
2024-01-16T23:42:27.133Z,77.42
2024-01-16T23:44:54.962Z,76.80
2024-01-16T23:47:22.103Z,76.97
2024-01-16T23:49:49.015Z,77.18
2024-01-16T23:52:15.934Z,77.29
2024-01-16T23:54:42.760Z,77.41
2024-01-16T23:57:09.737Z,77.54
2024-01-16T23:59:36.597Z,77.48
